sensor_id;sensor_type;location;lat;lon;timestamp;temperature;humidity
24217;DHT22;12356;49.386;8.688;2022-09-09T00:00:17;19.20;74.20
24217;DHT22;12356;49.386;8.688;2022-09-09T00:03:18;19.10;74.70
24217;DHT22;12356;49.386;8.688;2022-09-09T00:06:29;19.10;75.60
24217;DHT22;12356;49.386;8.688;2022-09-09T00:09:19;19.10;74.70
24217;DHT22;12356;49.386;8.688;2022-09-09T00:11:52;19.10;74.60
24217;DHT22;12356;49.386;8.688;2022-09-09T00:20:19;19.10;74.60
24217;DHT22;12356;49.386;8.688;2022-09-09T00:23:11;19.10;74.70
24217;DHT22;12356;49.386;8.688;2022-09-09T00:26:02;19.10;74.50
24217;DHT22;12356;49.386;8.688;2022-09-09T00:28:43;19.10;74.30
24217;DHT22;12356;49.386;8.688;2022-09-09T00:31:22;19.10;74.10
24217;DHT22;12356;49.386;8.688;2022-09-09T00:33:53;19.20;74.00
24217;DHT22;12356;49.386;8.688;2022-09-09T00:36:27;19.20;73.20
24217;DHT22;12356;49.386;8.688;2022-09-09T00:39:02;19.20;72.90
24217;DHT22;12356;49.386;8.688;2022-09-09T00:47:44;19.20;71.00
24217;DHT22;12356;49.386;8.688;2022-09-09T00:58:46;19.30;71.30
24217;DHT22;12356;49.386;8.688;2022-09-09T01:01:20;19.30;71.20
24217;DHT22;12356;49.386;8.688;2022-09-09T01:03:56;19.30;71.00
24217;DHT22;12356;49.386;8.688;2022-09-09T01:06:34;19.40;71.40
24217;DHT22;12356;49.386;8.688;2022-09-09T01:09:26;19.40;70.90
24217;DHT22;12356;49.386;8.688;2022-09-09T01:14:49;19.40;71.00
24217;DHT22;12356;49.386;8.688;2022-09-09T01:28:50;19.40;68.90
24217;DHT22;12356;49.386;8.688;2022-09-09T01:34:35;19.40;69.70
24217;DHT22;12356;49.386;8.688;2022-09-09T01:37:11;19.30;69.50
24217;DHT22;12356;49.386;8.688;2022-09-09T01:39:43;19.30;69.80
24217;DHT22;12356;49.386;8.688;2022-09-09T01:42:16;19.40;69.90
24217;DHT22;12356;49.386;8.688;2022-09-09T01:44:46;19.30;70.20
24217;DHT22;12356;49.386;8.688;2022-09-09T01:47:17;19.30;69.80
24217;DHT22;12356;49.386;8.688;2022-09-09T01:49:48;19.30;70.00
24217;DHT22;12356;49.386;8.688;2022-09-09T01:52:18;19.30;70.20
24217;DHT22;12356;49.386;8.688;2022-09-09T01:54:49;19.30;70.30
24217;DHT22;12356;49.386;8.688;2022-09-09T01:59:58;19.30;70.20
24217;DHT22;12356;49.386;8.688;2022-09-09T02:08:11;19.20;70.40
24217;DHT22;12356;49.386;8.688;2022-09-09T02:10:53;19.20;70.90
24217;DHT22;12356;49.386;8.688;2022-09-09T02:13:25;19.20;70.70
24217;DHT22;12356;49.386;8.688;2022-09-09T02:19:09;19.20;71.40
24217;DHT22;12356;49.386;8.688;2022-09-09T02:21:45;19.20;71.50
24217;DHT22;12356;49.386;8.688;2022-09-09T02:24:16;19.20;71.40
24217;DHT22;12356;49.386;8.688;2022-09-09T02:26:52;19.20;71.50
24217;DHT22;12356;49.386;8.688;2022-09-09T02:29:47;19.10;71.40
24217;DHT22;12356;49.386;8.688;2022-09-09T02:32:22;19.10;71.70
24217;DHT22;12356;49.386;8.688;2022-09-09T02:34:59;19.10;71.90
24217;DHT22;12356;49.386;8.688;2022-09-09T02:37:37;19.10;72.30
24217;DHT22;12356;49.386;8.688;2022-09-09T02:40:11;19.10;72.50
24217;DHT22;12356;49.386;8.688;2022-09-09T02:42:44;19.00;72.50
24217;DHT22;12356;49.386;8.688;2022-09-09T02:45:19;19.00;72.50
24217;DHT22;12356;49.386;8.688;2022-09-09T02:51:20;19.00;72.70
24217;DHT22;12356;49.386;8.688;2022-09-09T02:56:33;18.90;73.20
24217;DHT22;12356;49.386;8.688;2022-09-09T02:59:08;18.90;73.70
24217;DHT22;12356;49.386;8.688;2022-09-09T03:01:38;18.80;73.80
24217;DHT22;12356;49.386;8.688;2022-09-09T03:04:10;18.80;73.90
24217;DHT22;12356;49.386;8.688;2022-09-09T03:06:41;18.80;73.70
24217;DHT22;12356;49.386;8.688;2022-09-09T03:09:11;18.80;73.90
24217;DHT22;12356;49.386;8.688;2022-09-09T03:11:42;18.70;74.00
24217;DHT22;12356;49.386;8.688;2022-09-09T03:14:13;18.70;74.40
24217;DHT22;12356;49.386;8.688;2022-09-09T03:16:43;18.70;74.40
24217;DHT22;12356;49.386;8.688;2022-09-09T03:19:14;18.60;74.10
24217;DHT22;12356;49.386;8.688;2022-09-09T03:21:46;18.60;74.00
24217;DHT22;12356;49.386;8.688;2022-09-09T03:24:16;18.60;73.80
24217;DHT22;12356;49.386;8.688;2022-09-09T03:26:47;18.60;73.90
24217;DHT22;12356;49.386;8.688;2022-09-09T03:29:18;18.50;74.00
24217;DHT22;12356;49.386;8.688;2022-09-09T03:31:49;18.50;73.50
24217;DHT22;12356;49.386;8.688;2022-09-09T03:34:20;18.50;73.90
24217;DHT22;12356;49.386;8.688;2022-09-09T03:36:51;18.50;73.60
24217;DHT22;12356;49.386;8.688;2022-09-09T03:39:22;18.40;73.40
24217;DHT22;12356;49.386;8.688;2022-09-09T03:41:53;18.40;73.40
24217;DHT22;12356;49.386;8.688;2022-09-09T03:44:23;18.30;73.40
24217;DHT22;12356;49.386;8.688;2022-09-09T03:46:54;18.30;73.50
24217;DHT22;12356;49.386;8.688;2022-09-09T03:49:24;18.30;73.80
24217;DHT22;12356;49.386;8.688;2022-09-09T03:51:56;18.30;73.80
24217;DHT22;12356;49.386;8.688;2022-09-09T03:54:28;18.30;74.00
24217;DHT22;12356;49.386;8.688;2022-09-09T03:56:59;18.30;74.30
24217;DHT22;12356;49.386;8.688;2022-09-09T03:59:30;18.30;74.10
24217;DHT22;12356;49.386;8.688;2022-09-09T04:02:01;18.20;74.10
24217;DHT22;12356;49.386;8.688;2022-09-09T04:04:32;18.30;74.40
24217;DHT22;12356;49.386;8.688;2022-09-09T04:07:03;18.30;74.50
24217;DHT22;12356;49.386;8.688;2022-09-09T04:09:36;18.30;74.20
24217;DHT22;12356;49.386;8.688;2022-09-09T04:12:07;18.20;74.50
24217;DHT22;12356;49.386;8.688;2022-09-09T04:14:37;18.30;75.50
24217;DHT22;12356;49.386;8.688;2022-09-09T04:17:08;18.20;76.00
24217;DHT22;12356;49.386;8.688;2022-09-09T04:19:39;18.20;76.50
24217;DHT22;12356;49.386;8.688;2022-09-09T04:22:09;18.20;76.90
24217;DHT22;12356;49.386;8.688;2022-09-09T04:24:40;18.20;76.40
24217;DHT22;12356;49.386;8.688;2022-09-09T04:27:10;18.20;76.60
24217;DHT22;12356;49.386;8.688;2022-09-09T04:29:41;18.20;77.30
24217;DHT22;12356;49.386;8.688;2022-09-09T04:32:12;18.20;76.90
24217;DHT22;12356;49.386;8.688;2022-09-09T04:34:42;18.20;76.70
24217;DHT22;12356;49.386;8.688;2022-09-09T04:37:13;18.20;76.20
24217;DHT22;12356;49.386;8.688;2022-09-09T04:39:44;18.20;75.90
24217;DHT22;12356;49.386;8.688;2022-09-09T04:42:15;18.20;76.00
24217;DHT22;12356;49.386;8.688;2022-09-09T04:44:47;18.20;76.20
24217;DHT22;12356;49.386;8.688;2022-09-09T04:47:18;18.10;75.80
24217;DHT22;12356;49.386;8.688;2022-09-09T04:49:49;18.10;75.70
24217;DHT22;12356;49.386;8.688;2022-09-09T04:52:20;18.20;75.90
24217;DHT22;12356;49.386;8.688;2022-09-09T04:54:51;18.20;76.00
24217;DHT22;12356;49.386;8.688;2022-09-09T04:57:22;18.20;75.40
24217;DHT22;12356;49.386;8.688;2022-09-09T04:59:53;18.10;75.30
24217;DHT22;12356;49.386;8.688;2022-09-09T05:02:23;18.10;75.70
24217;DHT22;12356;49.386;8.688;2022-09-09T05:04:54;18.20;75.80
24217;DHT22;12356;49.386;8.688;2022-09-09T05:07:27;18.20;75.50
24217;DHT22;12356;49.386;8.688;2022-09-09T05:09:57;18.20;75.30
24217;DHT22;12356;49.386;8.688;2022-09-09T05:12:28;18.20;75.50
24217;DHT22;12356;49.386;8.688;2022-09-09T05:14:59;18.20;75.50
24217;DHT22;12356;49.386;8.688;2022-09-09T05:17:29;18.20;75.70
24217;DHT22;12356;49.386;8.688;2022-09-09T05:20:00;18.20;75.60
24217;DHT22;12356;49.386;8.688;2022-09-09T05:22:31;18.20;75.40
24217;DHT22;12356;49.386;8.688;2022-09-09T05:25:02;18.20;75.50
24217;DHT22;12356;49.386;8.688;2022-09-09T05:27:34;18.20;75.30
24217;DHT22;12356;49.386;8.688;2022-09-09T05:30:05;18.30;75.50
24217;DHT22;12356;49.386;8.688;2022-09-09T05:32:35;18.20;75.30
24217;DHT22;12356;49.386;8.688;2022-09-09T05:35:06;18.20;75.10
24217;DHT22;12356;49.386;8.688;2022-09-09T05:37:37;18.30;75.30
24217;DHT22;12356;49.386;8.688;2022-09-09T05:40:08;18.30;75.30
24217;DHT22;12356;49.386;8.688;2022-09-09T05:42:41;18.30;75.40
24217;DHT22;12356;49.386;8.688;2022-09-09T05:45:11;18.30;75.10
24217;DHT22;12356;49.386;8.688;2022-09-09T05:47:42;18.30;75.10
24217;DHT22;12356;49.386;8.688;2022-09-09T05:50:13;18.30;75.50
24217;DHT22;12356;49.386;8.688;2022-09-09T05:52:44;18.30;75.30
24217;DHT22;12356;49.386;8.688;2022-09-09T05:55:15;18.40;75.30
24217;DHT22;12356;49.386;8.688;2022-09-09T05:57:49;18.40;75.30
24217;DHT22;12356;49.386;8.688;2022-09-09T06:00:20;18.40;75.50
24217;DHT22;12356;49.386;8.688;2022-09-09T06:02:52;18.40;75.20
24217;DHT22;12356;49.386;8.688;2022-09-09T06:05:23;18.40;75.00
24217;DHT22;12356;49.386;8.688;2022-09-09T06:07:54;18.40;74.90
24217;DHT22;12356;49.386;8.688;2022-09-09T06:10:26;18.40;74.50
24217;DHT22;12356;49.386;8.688;2022-09-09T06:12:56;18.40;74.60
24217;DHT22;12356;49.386;8.688;2022-09-09T06:15:27;18.40;74.60
24217;DHT22;12356;49.386;8.688;2022-09-09T06:17:57;18.40;74.70
24217;DHT22;12356;49.386;8.688;2022-09-09T06:20:28;18.40;74.50
24217;DHT22;12356;49.386;8.688;2022-09-09T06:23:00;18.40;74.90
24217;DHT22;12356;49.386;8.688;2022-09-09T06:25:31;18.40;74.50
24217;DHT22;12356;49.386;8.688;2022-09-09T06:28:04;18.40;74.40
24217;DHT22;12356;49.386;8.688;2022-09-09T06:30:35;18.50;74.60
24217;DHT22;12356;49.386;8.688;2022-09-09T06:33:06;18.50;74.60
24217;DHT22;12356;49.386;8.688;2022-09-09T06:35:37;18.50;74.20
24217;DHT22;12356;49.386;8.688;2022-09-09T06:38:07;18.60;73.90
24217;DHT22;12356;49.386;8.688;2022-09-09T06:40:38;18.60;74.20
24217;DHT22;12356;49.386;8.688;2022-09-09T06:43:10;18.60;74.30
24217;DHT22;12356;49.386;8.688;2022-09-09T06:45:40;18.60;74.00
24217;DHT22;12356;49.386;8.688;2022-09-09T06:48:11;18.70;73.90
24217;DHT22;12356;49.386;8.688;2022-09-09T06:50:41;18.70;73.70
24217;DHT22;12356;49.386;8.688;2022-09-09T06:53:17;18.70;73.90
24217;DHT22;12356;49.386;8.688;2022-09-09T06:55:49;18.80;74.00
24217;DHT22;12356;49.386;8.688;2022-09-09T06:58:20;18.80;73.90
24217;DHT22;12356;49.386;8.688;2022-09-09T07:00:52;18.80;73.80
24217;DHT22;12356;49.386;8.688;2022-09-09T07:03:23;18.90;74.10
24217;DHT22;12356;49.386;8.688;2022-09-09T07:05:55;18.90;73.50
24217;DHT22;12356;49.386;8.688;2022-09-09T07:08:26;18.90;73.60
24217;DHT22;12356;49.386;8.688;2022-09-09T07:11:07;19.00;73.80
24217;DHT22;12356;49.386;8.688;2022-09-09T07:13:38;19.00;73.40
24217;DHT22;12356;49.386;8.688;2022-09-09T07:16:11;19.00;73.60
24217;DHT22;12356;49.386;8.688;2022-09-09T07:18:43;19.00;74.10
24217;DHT22;12356;49.386;8.688;2022-09-09T07:21:14;19.00;73.90
24217;DHT22;12356;49.386;8.688;2022-09-09T07:23:45;19.10;73.50
24217;DHT22;12356;49.386;8.688;2022-09-09T07:26:17;19.10;72.80
24217;DHT22;12356;49.386;8.688;2022-09-09T07:28:49;19.10;72.60
24217;DHT22;12356;49.386;8.688;2022-09-09T07:31:31;19.10;73.20
24217;DHT22;12356;49.386;8.688;2022-09-09T07:34:03;19.10;73.00
24217;DHT22;12356;49.386;8.688;2022-09-09T07:36:38;19.20;73.20
24217;DHT22;12356;49.386;8.688;2022-09-09T07:39:12;19.20;72.80
24217;DHT22;12356;49.386;8.688;2022-09-09T07:41:45;19.30;72.60
24217;DHT22;12356;49.386;8.688;2022-09-09T07:44:21;19.40;72.90
24217;DHT22;12356;49.386;8.688;2022-09-09T07:46:52;19.50;72.10
24217;DHT22;12356;49.386;8.688;2022-09-09T07:49:23;19.50;70.60
24217;DHT22;12356;49.386;8.688;2022-09-09T07:51:54;19.60;71.00
24217;DHT22;12356;49.386;8.688;2022-09-09T07:54:25;19.70;70.10
24217;DHT22;12356;49.386;8.688;2022-09-09T07:56:57;19.70;70.70
24217;DHT22;12356;49.386;8.688;2022-09-09T07:59:28;19.80;70.70
24217;DHT22;12356;49.386;8.688;2022-09-09T08:02:00;19.90;69.80
24217;DHT22;12356;49.386;8.688;2022-09-09T08:04:31;19.90;69.90
24217;DHT22;12356;49.386;8.688;2022-09-09T08:07:02;19.90;69.60
24217;DHT22;12356;49.386;8.688;2022-09-09T08:09:33;20.00;69.90
24217;DHT22;12356;49.386;8.688;2022-09-09T08:12:04;20.00;68.90
24217;DHT22;12356;49.386;8.688;2022-09-09T08:14:36;20.10;69.80
24217;DHT22;12356;49.386;8.688;2022-09-09T08:17:07;20.20;67.20
24217;DHT22;12356;49.386;8.688;2022-09-09T08:19:38;20.20;66.80
24217;DHT22;12356;49.386;8.688;2022-09-09T08:22:08;20.20;66.00
24217;DHT22;12356;49.386;8.688;2022-09-09T08:24:39;20.30;66.40
24217;DHT22;12356;49.386;8.688;2022-09-09T08:27:11;20.30;67.40
24217;DHT22;12356;49.386;8.688;2022-09-09T08:29:42;20.30;67.40
24217;DHT22;12356;49.386;8.688;2022-09-09T08:32:13;20.40;67.50
24217;DHT22;12356;49.386;8.688;2022-09-09T08:34:44;20.50;67.40
24217;DHT22;12356;49.386;8.688;2022-09-09T08:37:14;20.50;66.20
24217;DHT22;12356;49.386;8.688;2022-09-09T08:39:45;20.50;65.80
24217;DHT22;12356;49.386;8.688;2022-09-09T08:45:12;20.40;65.80
24217;DHT22;12356;49.386;8.688;2022-09-09T08:50:49;20.40;66.70
24217;DHT22;12356;49.386;8.688;2022-09-09T08:53:27;20.40;67.40
24217;DHT22;12356;49.386;8.688;2022-09-09T08:56:06;20.30;67.40
24217;DHT22;12356;49.386;8.688;2022-09-09T08:58:47;20.30;67.80
24217;DHT22;12356;49.386;8.688;2022-09-09T09:07:26;20.10;70.70
24217;DHT22;12356;49.386;8.688;2022-09-09T09:10:21;20.10;69.10
24217;DHT22;12356;49.386;8.688;2022-09-09T09:12:55;20.10;69.10
24217;DHT22;12356;49.386;8.688;2022-09-09T09:15:33;20.10;69.20
24217;DHT22;12356;49.386;8.688;2022-09-09T09:18:11;20.20;69.10
24217;DHT22;12356;49.386;8.688;2022-09-09T09:23:47;20.10;68.80
24217;DHT22;12356;49.386;8.688;2022-09-09T09:26:23;20.10;67.30
24217;DHT22;12356;49.386;8.688;2022-09-09T09:28:56;20.20;66.90
24217;DHT22;12356;49.386;8.688;2022-09-09T09:31:28;20.10;66.70
24217;DHT22;12356;49.386;8.688;2022-09-09T09:33:59;20.20;66.50
24217;DHT22;12356;49.386;8.688;2022-09-09T09:36:39;20.20;67.30
24217;DHT22;12356;49.386;8.688;2022-09-09T09:42:14;20.30;66.30
24217;DHT22;12356;49.386;8.688;2022-09-09T09:44:45;20.30;66.90
24217;DHT22;12356;49.386;8.688;2022-09-09T09:47:21;20.40;66.50
24217;DHT22;12356;49.386;8.688;2022-09-09T09:49:59;20.40;66.80
24217;DHT22;12356;49.386;8.688;2022-09-09T09:52:31;20.50;65.40
24217;DHT22;12356;49.386;8.688;2022-09-09T09:55:03;20.60;64.70
24217;DHT22;12356;49.386;8.688;2022-09-09T09:57:37;20.60;64.50
24217;DHT22;12356;49.386;8.688;2022-09-09T10:02:48;20.70;61.70
24217;DHT22;12356;49.386;8.688;2022-09-09T10:05:23;20.60;62.20
24217;DHT22;12356;49.386;8.688;2022-09-09T10:08:12;20.60;62.70
24217;DHT22;12356;49.386;8.688;2022-09-09T10:16:58;20.50;66.20
24217;DHT22;12356;49.386;8.688;2022-09-09T10:19:33;20.40;66.50
24217;DHT22;12356;49.386;8.688;2022-09-09T10:22:25;20.40;68.60
24217;DHT22;12356;49.386;8.688;2022-09-09T10:33:56;20.40;69.20
24217;DHT22;12356;49.386;8.688;2022-09-09T10:36:28;20.30;63.70
24217;DHT22;12356;49.386;8.688;2022-09-09T10:39:28;20.30;63.40
24217;DHT22;12356;49.386;8.688;2022-09-09T10:42:05;20.30;63.70
24217;DHT22;12356;49.386;8.688;2022-09-09T10:53:14;20.50;63.70
24217;DHT22;12356;49.386;8.688;2022-09-09T10:55:56;20.60;62.70
24217;DHT22;12356;49.386;8.688;2022-09-09T10:58:34;20.70;61.50
24217;DHT22;12356;49.386;8.688;2022-09-09T11:01:12;20.80;59.40
24217;DHT22;12356;49.386;8.688;2022-09-09T11:03:52;20.90;61.60
24217;DHT22;12356;49.386;8.688;2022-09-09T11:06:32;21.00;60.80
24217;DHT22;12356;49.386;8.688;2022-09-09T11:09:05;21.10;57.90
24217;DHT22;12356;49.386;8.688;2022-09-09T11:11:42;21.20;57.40
24217;DHT22;12356;49.386;8.688;2022-09-09T11:14:18;21.20;55.30
24217;DHT22;12356;49.386;8.688;2022-09-09T11:17:06;21.20;55.50
24217;DHT22;12356;49.386;8.688;2022-09-09T11:19:40;21.30;56.50
24217;DHT22;12356;49.386;8.688;2022-09-09T11:22:36;21.30;57.00
24217;DHT22;12356;49.386;8.688;2022-09-09T11:25:16;21.30;56.70
24217;DHT22;12356;49.386;8.688;2022-09-09T11:28:01;21.20;55.20
24217;DHT22;12356;49.386;8.688;2022-09-09T11:36:48;21.30;57.00
24217;DHT22;12356;49.386;8.688;2022-09-09T11:42:26;21.40;56.90
24217;DHT22;12356;49.386;8.688;2022-09-09T11:44:57;21.40;56.40
24217;DHT22;12356;49.386;8.688;2022-09-09T11:47:29;21.50;56.50
24217;DHT22;12356;49.386;8.688;2022-09-09T11:52:45;21.50;52.50
24217;DHT22;12356;49.386;8.688;2022-09-09T11:55:30;21.60;53.80
24217;DHT22;12356;49.386;8.688;2022-09-09T11:58:14;21.60;54.10
24217;DHT22;12356;49.386;8.688;2022-09-09T12:00:49;21.60;53.50
24217;DHT22;12356;49.386;8.688;2022-09-09T12:03:41;21.60;54.40
24217;DHT22;12356;49.386;8.688;2022-09-09T12:08:54;21.70;54.20
24217;DHT22;12356;49.386;8.688;2022-09-09T12:11:28;21.70;54.50
24217;DHT22;12356;49.386;8.688;2022-09-09T12:14:00;21.70;53.40
24217;DHT22;12356;49.386;8.688;2022-09-09T12:16:36;21.70;54.00
24217;DHT22;12356;49.386;8.688;2022-09-09T12:19:21;21.70;54.00
24217;DHT22;12356;49.386;8.688;2022-09-09T12:22:11;21.70;55.00
24217;DHT22;12356;49.386;8.688;2022-09-09T12:27:56;21.60;54.00
24217;DHT22;12356;49.386;8.688;2022-09-09T12:30:48;21.60;55.50
24217;DHT22;12356;49.386;8.688;2022-09-09T12:33:20;21.60;55.20
24217;DHT22;12356;49.386;8.688;2022-09-09T12:35:57;21.50;55.60
24217;DHT22;12356;49.386;8.688;2022-09-09T12:38:35;21.60;53.70
24217;DHT22;12356;49.386;8.688;2022-09-09T12:41:15;21.60;55.10
24217;DHT22;12356;49.386;8.688;2022-09-09T12:43:50;21.70;54.20
24217;DHT22;12356;49.386;8.688;2022-09-09T12:46:29;21.70;53.20
24217;DHT22;12356;49.386;8.688;2022-09-09T12:49:03;21.80;50.40
24217;DHT22;12356;49.386;8.688;2022-09-09T12:51:34;21.80;52.40
24217;DHT22;12356;49.386;8.688;2022-09-09T12:54:04;21.80;52.00
24217;DHT22;12356;49.386;8.688;2022-09-09T12:56:35;21.80;52.40
24217;DHT22;12356;49.386;8.688;2022-09-09T12:59:25;21.70;53.20
24217;DHT22;12356;49.386;8.688;2022-09-09T13:01:58;21.80;54.20
24217;DHT22;12356;49.386;8.688;2022-09-09T13:04:29;21.80;54.80
24217;DHT22;12356;49.386;8.688;2022-09-09T13:07:07;21.90;54.70
24217;DHT22;12356;49.386;8.688;2022-09-09T13:09:40;21.90;54.70
24217;DHT22;12356;49.386;8.688;2022-09-09T13:12:23;21.90;55.60
24217;DHT22;12356;49.386;8.688;2022-09-09T13:14:56;21.90;54.50
24217;DHT22;12356;49.386;8.688;2022-09-09T13:17:27;21.80;55.50
24217;DHT22;12356;49.386;8.688;2022-09-09T13:20:01;21.70;54.80
24217;DHT22;12356;49.386;8.688;2022-09-09T13:22:37;21.60;55.70
24217;DHT22;12356;49.386;8.688;2022-09-09T13:27:41;21.40;55.30
24217;DHT22;12356;49.386;8.688;2022-09-09T13:30:29;21.30;56.30
24217;DHT22;12356;49.386;8.688;2022-09-09T13:33:21;21.20;55.50
24217;DHT22;12356;49.386;8.688;2022-09-09T13:35:58;21.10;53.40
24217;DHT22;12356;49.386;8.688;2022-09-09T13:38:32;20.90;52.50
24217;DHT22;12356;49.386;8.688;2022-09-09T13:41:08;20.80;56.50
24217;DHT22;12356;49.386;8.688;2022-09-09T13:43:45;20.60;60.10
24217;DHT22;12356;49.386;8.688;2022-09-09T13:46:37;20.40;60.90
24217;DHT22;12356;49.386;8.688;2022-09-09T13:52:31;20.10;66.60
24217;DHT22;12356;49.386;8.688;2022-09-09T13:54:37;19.90;68.20
24217;DHT22;12356;49.386;8.688;2022-09-09T13:57:19;19.70;69.70
24217;DHT22;12356;49.386;8.688;2022-09-09T13:59:52;19.60;70.00
24217;DHT22;12356;49.386;8.688;2022-09-09T14:02:22;19.60;70.50
24217;DHT22;12356;49.386;8.688;2022-09-09T14:04:54;19.50;71.50
24217;DHT22;12356;49.386;8.688;2022-09-09T14:07:25;19.50;72.30
24217;DHT22;12356;49.386;8.688;2022-09-09T14:09:56;19.50;71.70
24217;DHT22;12356;49.386;8.688;2022-09-09T14:12:27;19.50;70.70
24217;DHT22;12356;49.386;8.688;2022-09-09T14:14:57;19.60;70.60
24217;DHT22;12356;49.386;8.688;2022-09-09T14:17:30;19.60;66.70
24217;DHT22;12356;49.386;8.688;2022-09-09T14:20:03;19.70;66.20
24217;DHT22;12356;49.386;8.688;2022-09-09T14:22:36;19.80;65.10
24217;DHT22;12356;49.386;8.688;2022-09-09T14:25:07;19.90;66.10
24217;DHT22;12356;49.386;8.688;2022-09-09T14:27:38;20.00;64.10
24217;DHT22;12356;49.386;8.688;2022-09-09T14:30:10;20.10;64.90
24217;DHT22;12356;49.386;8.688;2022-09-09T14:32:40;20.30;65.60
24217;DHT22;12356;49.386;8.688;2022-09-09T14:35:11;20.30;64.80
24217;DHT22;12356;49.386;8.688;2022-09-09T14:37:42;20.40;62.20
24217;DHT22;12356;49.386;8.688;2022-09-09T14:40:13;20.40;62.60
24217;DHT22;12356;49.386;8.688;2022-09-09T14:42:45;20.50;63.20
24217;DHT22;12356;49.386;8.688;2022-09-09T14:45:16;20.60;62.10
24217;DHT22;12356;49.386;8.688;2022-09-09T14:47:47;20.70;62.50
24217;DHT22;12356;49.386;8.688;2022-09-09T14:50:18;20.70;61.40
24217;DHT22;12356;49.386;8.688;2022-09-09T14:52:49;20.70;61.80
24217;DHT22;12356;49.386;8.688;2022-09-09T14:55:20;20.70;61.70
24217;DHT22;12356;49.386;8.688;2022-09-09T14:57:51;20.70;61.80
24217;DHT22;12356;49.386;8.688;2022-09-09T15:00:22;20.70;62.30
24217;DHT22;12356;49.386;8.688;2022-09-09T15:02:53;20.60;63.10
24217;DHT22;12356;49.386;8.688;2022-09-09T15:05:24;20.60;63.70
24217;DHT22;12356;49.386;8.688;2022-09-09T15:07:55;20.50;63.40
24217;DHT22;12356;49.386;8.688;2022-09-09T15:10:26;20.50;64.30
24217;DHT22;12356;49.386;8.688;2022-09-09T15:12:57;20.50;64.20
24217;DHT22;12356;49.386;8.688;2022-09-09T15:15:28;20.50;64.20
24217;DHT22;12356;49.386;8.688;2022-09-09T15:17:58;20.50;64.30
24217;DHT22;12356;49.386;8.688;2022-09-09T15:20:29;20.50;64.20
24217;DHT22;12356;49.386;8.688;2022-09-09T15:22:59;20.50;64.60
24217;DHT22;12356;49.386;8.688;2022-09-09T15:25:30;20.50;65.10
24217;DHT22;12356;49.386;8.688;2022-09-09T15:28:00;20.50;65.50
24217;DHT22;12356;49.386;8.688;2022-09-09T15:30:31;20.40;65.80
24217;DHT22;12356;49.386;8.688;2022-09-09T15:33:07;20.40;65.80
24217;DHT22;12356;49.386;8.688;2022-09-09T15:35:38;20.40;65.90
24217;DHT22;12356;49.386;8.688;2022-09-09T15:38:09;20.40;66.60
24217;DHT22;12356;49.386;8.688;2022-09-09T15:40:40;20.50;65.90
24217;DHT22;12356;49.386;8.688;2022-09-09T15:43:10;20.40;61.10
24217;DHT22;12356;49.386;8.688;2022-09-09T15:45:41;20.20;59.90
24217;DHT22;12356;49.386;8.688;2022-09-09T15:48:11;20.10;62.30
24217;DHT22;12356;49.386;8.688;2022-09-09T15:50:42;19.90;66.70
24217;DHT22;12356;49.386;8.688;2022-09-09T15:53:12;19.70;67.60
24217;DHT22;12356;49.386;8.688;2022-09-09T15:55:43;19.60;69.50
24217;DHT22;12356;49.386;8.688;2022-09-09T15:58:14;19.30;73.80
24217;DHT22;12356;49.386;8.688;2022-09-09T16:00:45;19.20;77.10
24217;DHT22;12356;49.386;8.688;2022-09-09T16:03:16;19.00;81.50
24217;DHT22;12356;49.386;8.688;2022-09-09T16:05:51;19.00;83.20
24217;DHT22;12356;49.386;8.688;2022-09-09T16:08:21;18.90;87.50
24217;DHT22;12356;49.386;8.688;2022-09-09T16:10:52;18.90;90.10
24217;DHT22;12356;49.386;8.688;2022-09-09T16:13:23;18.90;91.50
24217;DHT22;12356;49.386;8.688;2022-09-09T16:15:54;18.90;91.50
24217;DHT22;12356;49.386;8.688;2022-09-09T16:18:25;19.00;92.10
24217;DHT22;12356;49.386;8.688;2022-09-09T16:20:55;18.90;91.10
24217;DHT22;12356;49.386;8.688;2022-09-09T16:23:26;18.90;91.60
24217;DHT22;12356;49.386;8.688;2022-09-09T16:25:57;18.90;91.20
24217;DHT22;12356;49.386;8.688;2022-09-09T16:28:28;18.90;91.20
24217;DHT22;12356;49.386;8.688;2022-09-09T16:30:59;18.90;91.50
24217;DHT22;12356;49.386;8.688;2022-09-09T16:33:34;18.90;91.90
24217;DHT22;12356;49.386;8.688;2022-09-09T16:36:10;18.90;92.10
24217;DHT22;12356;49.386;8.688;2022-09-09T16:38:42;18.70;92.40
24217;DHT22;12356;49.386;8.688;2022-09-09T16:41:14;18.80;92.70
24217;DHT22;12356;49.386;8.688;2022-09-09T16:43:45;18.80;93.00
24217;DHT22;12356;49.386;8.688;2022-09-09T16:46:17;18.90;93.20
24217;DHT22;12356;49.386;8.688;2022-09-09T16:48:48;18.90;93.30
24217;DHT22;12356;49.386;8.688;2022-09-09T16:51:22;18.80;93.00
24217;DHT22;12356;49.386;8.688;2022-09-09T16:53:58;18.80;92.90
24217;DHT22;12356;49.386;8.688;2022-09-09T16:56:31;18.80;92.50
24217;DHT22;12356;49.386;8.688;2022-09-09T16:59:13;18.70;92.30
24217;DHT22;12356;49.386;8.688;2022-09-09T17:01:45;18.70;92.30
24217;DHT22;12356;49.386;8.688;2022-09-09T17:04:17;18.60;92.20
24217;DHT22;12356;49.386;8.688;2022-09-09T17:06:52;18.60;92.30
24217;DHT22;12356;49.386;8.688;2022-09-09T17:09:23;18.60;92.40
24217;DHT22;12356;49.386;8.688;2022-09-09T17:11:55;18.50;92.40
24217;DHT22;12356;49.386;8.688;2022-09-09T17:14:25;18.50;92.60
24217;DHT22;12356;49.386;8.688;2022-09-09T17:16:56;18.40;92.60
24217;DHT22;12356;49.386;8.688;2022-09-09T17:19:27;18.40;92.80
24217;DHT22;12356;49.386;8.688;2022-09-09T17:21:58;18.30;93.20
24217;DHT22;12356;49.386;8.688;2022-09-09T17:24:29;18.40;93.10
24217;DHT22;12356;49.386;8.688;2022-09-09T17:26:59;18.40;93.30
24217;DHT22;12356;49.386;8.688;2022-09-09T17:29:31;18.40;93.00
24217;DHT22;12356;49.386;8.688;2022-09-09T17:32:03;18.50;92.60
24217;DHT22;12356;49.386;8.688;2022-09-09T17:34:35;18.50;92.50
24217;DHT22;12356;49.386;8.688;2022-09-09T17:37:06;18.40;92.60
24217;DHT22;12356;49.386;8.688;2022-09-09T17:39:37;18.40;92.60
24217;DHT22;12356;49.386;8.688;2022-09-09T17:42:07;18.40;92.10
24217;DHT22;12356;49.386;8.688;2022-09-09T17:44:38;18.40;92.10
24217;DHT22;12356;49.386;8.688;2022-09-09T17:47:10;18.50;91.30
24217;DHT22;12356;49.386;8.688;2022-09-09T17:49:40;18.50;91.30
24217;DHT22;12356;49.386;8.688;2022-09-09T17:52:12;18.40;90.90
24217;DHT22;12356;49.386;8.688;2022-09-09T17:54:42;18.40;90.90
24217;DHT22;12356;49.386;8.688;2022-09-09T17:57:13;18.30;91.20
24217;DHT22;12356;49.386;8.688;2022-09-09T17:59:44;18.30;91.30
24217;DHT22;12356;49.386;8.688;2022-09-09T18:02:15;18.30;91.50
24217;DHT22;12356;49.386;8.688;2022-09-09T18:04:45;18.30;91.50
24217;DHT22;12356;49.386;8.688;2022-09-09T18:07:16;18.30;91.60
24217;DHT22;12356;49.386;8.688;2022-09-09T18:09:47;18.30;91.50
24217;DHT22;12356;49.386;8.688;2022-09-09T18:12:19;18.40;91.30